sensor_id;sensor_type;location;lat;lon;timestamp;temperature;humidity
47090;DHT22;32840;52.516;13.294;2022-08-06T00:00:38;20.40;78.00
47090;DHT22;32840;52.516;13.294;2022-08-06T00:03:24;20.40;77.90
47090;DHT22;32840;52.516;13.294;2022-08-06T00:06:10;20.30;77.80
47090;DHT22;32840;52.516;13.294;2022-08-06T00:08:55;20.30;78.00
47090;DHT22;32840;52.516;13.294;2022-08-06T00:11:40;20.30;78.00
47090;DHT22;32840;52.516;13.294;2022-08-06T00:14:29;20.20;77.70
47090;DHT22;32840;52.516;13.294;2022-08-06T00:17:14;20.20;78.00
47090;DHT22;32840;52.516;13.294;2022-08-06T00:19:59;20.20;78.00
47090;DHT22;32840;52.516;13.294;2022-08-06T00:22:44;20.20;78.00
47090;DHT22;32840;52.516;13.294;2022-08-06T00:25:29;20.10;77.80
47090;DHT22;32840;52.516;13.294;2022-08-06T00:28:14;20.10;77.80
47090;DHT22;32840;52.516;13.294;2022-08-06T00:31:00;20.10;77.90
47090;DHT22;32840;52.516;13.294;2022-08-06T00:33:45;20.10;77.70
47090;DHT22;32840;52.516;13.294;2022-08-06T00:36:31;20.10;77.80
47090;DHT22;32840;52.516;13.294;2022-08-06T00:39:16;20.00;77.80
47090;DHT22;32840;52.516;13.294;2022-08-06T00:42:00;20.00;77.60
47090;DHT22;32840;52.516;13.294;2022-08-06T00:44:45;19.90;77.50
47090;DHT22;32840;52.516;13.294;2022-08-06T00:47:30;19.90;77.70
47090;DHT22;32840;52.516;13.294;2022-08-06T00:50:15;19.90;77.80
47090;DHT22;32840;52.516;13.294;2022-08-06T00:53:01;19.80;77.40
47090;DHT22;32840;52.516;13.294;2022-08-06T00:55:47;19.70;77.50
47090;DHT22;32840;52.516;13.294;2022-08-06T00:58:32;19.70;77.60
47090;DHT22;32840;52.516;13.294;2022-08-06T01:01:16;19.70;77.50
47090;DHT22;32840;52.516;13.294;2022-08-06T01:04:01;19.70;77.70
47090;DHT22;32840;52.516;13.294;2022-08-06T01:06:47;19.60;77.60
47090;DHT22;32840;52.516;13.294;2022-08-06T01:09:35;19.50;77.60
47090;DHT22;32840;52.516;13.294;2022-08-06T01:12:20;19.60;77.70
47090;DHT22;32840;52.516;13.294;2022-08-06T01:15:07;19.60;77.80
47090;DHT22;32840;52.516;13.294;2022-08-06T01:17:55;19.50;77.90
47090;DHT22;32840;52.516;13.294;2022-08-06T01:20:51;19.50;77.70
47090;DHT22;32840;52.516;13.294;2022-08-06T01:30:15;19.50;77.90
47090;DHT22;32840;52.516;13.294;2022-08-06T01:33:06;19.40;77.80
47090;DHT22;32840;52.516;13.294;2022-08-06T01:35:54;19.30;78.00
47090;DHT22;32840;52.516;13.294;2022-08-06T01:38:48;19.30;78.40
47090;DHT22;32840;52.516;13.294;2022-08-06T01:41:41;19.20;78.60
47090;DHT22;32840;52.516;13.294;2022-08-06T01:44:37;19.10;78.80
47090;DHT22;32840;52.516;13.294;2022-08-06T01:47:25;19.10;79.00
47090;DHT22;32840;52.516;13.294;2022-08-06T01:50:12;19.10;80.00
47090;DHT22;32840;52.516;13.294;2022-08-06T01:53:00;19.00;80.10
47090;DHT22;32840;52.516;13.294;2022-08-06T01:55:49;19.00;79.80
47090;DHT22;32840;52.516;13.294;2022-08-06T01:58:39;18.90;79.80
47090;DHT22;32840;52.516;13.294;2022-08-06T02:01:26;18.90;80.00
47090;DHT22;32840;52.516;13.294;2022-08-06T02:04:15;18.90;80.20
47090;DHT22;32840;52.516;13.294;2022-08-06T02:07:03;18.90;81.10
47090;DHT22;32840;52.516;13.294;2022-08-06T02:09:50;18.80;80.80
47090;DHT22;32840;52.516;13.294;2022-08-06T02:12:37;18.70;80.90
47090;DHT22;32840;52.516;13.294;2022-08-06T02:15:26;18.70;81.10
47090;DHT22;32840;52.516;13.294;2022-08-06T02:18:15;18.70;81.20
47090;DHT22;32840;52.516;13.294;2022-08-06T02:21:05;18.70;81.40
47090;DHT22;32840;52.516;13.294;2022-08-06T02:23:50;18.60;81.80
47090;DHT22;32840;52.516;13.294;2022-08-06T02:26:38;18.50;82.10
47090;DHT22;32840;52.516;13.294;2022-08-06T02:29:25;18.50;82.30
47090;DHT22;32840;52.516;13.294;2022-08-06T02:32:12;18.40;82.50
47090;DHT22;32840;52.516;13.294;2022-08-06T02:34:58;18.40;82.40
47090;DHT22;32840;52.516;13.294;2022-08-06T02:37:53;18.40;82.60
47090;DHT22;32840;52.516;13.294;2022-08-06T02:40:46;18.40;82.40
47090;DHT22;32840;52.516;13.294;2022-08-06T02:43:36;18.40;82.40
47090;DHT22;32840;52.516;13.294;2022-08-06T02:46:31;18.30;82.40
47090;DHT22;32840;52.516;13.294;2022-08-06T02:49:22;18.30;82.30
47090;DHT22;32840;52.516;13.294;2022-08-06T02:52:34;18.30;82.20
47090;DHT22;32840;52.516;13.294;2022-08-06T02:55:23;18.30;82.10
47090;DHT22;32840;52.516;13.294;2022-08-06T02:58:35;18.30;82.10
47090;DHT22;32840;52.516;13.294;2022-08-06T03:01:27;18.30;82.30
47090;DHT22;32840;52.516;13.294;2022-08-06T03:04:13;18.30;82.10
47090;DHT22;32840;52.516;13.294;2022-08-06T03:07:04;18.30;82.30
47090;DHT22;32840;52.516;13.294;2022-08-06T03:09:52;18.20;82.30
47090;DHT22;32840;52.516;13.294;2022-08-06T03:12:38;18.20;82.50
47090;DHT22;32840;52.516;13.294;2022-08-06T03:15:24;18.10;82.70
47090;DHT22;32840;52.516;13.294;2022-08-06T03:18:09;18.10;82.70
47090;DHT22;32840;52.516;13.294;2022-08-06T03:20:57;18.10;82.70
47090;DHT22;32840;52.516;13.294;2022-08-06T03:23:42;18.10;82.60
47090;DHT22;32840;52.516;13.294;2022-08-06T03:26:28;18.20;82.70
47090;DHT22;32840;52.516;13.294;2022-08-06T03:29:14;18.10;82.70
47090;DHT22;32840;52.516;13.294;2022-08-06T03:31:59;18.10;82.80
47090;DHT22;32840;52.516;13.294;2022-08-06T03:34:45;18.10;82.90
47090;DHT22;32840;52.516;13.294;2022-08-06T03:37:33;18.10;82.90
47090;DHT22;32840;52.516;13.294;2022-08-06T03:40:19;18.10;83.10
47090;DHT22;32840;52.516;13.294;2022-08-06T03:43:05;18.00;83.20
47090;DHT22;32840;52.516;13.294;2022-08-06T03:45:59;18.00;83.40
47090;DHT22;32840;52.516;13.294;2022-08-06T03:48:45;18.00;83.50
47090;DHT22;32840;52.516;13.294;2022-08-06T03:51:31;18.00;83.50
47090;DHT22;32840;52.516;13.294;2022-08-06T03:54:24;18.00;83.40
47090;DHT22;32840;52.516;13.294;2022-08-06T03:57:12;17.90;83.70
47090;DHT22;32840;52.516;13.294;2022-08-06T03:59:58;17.90;83.70
47090;DHT22;32840;52.516;13.294;2022-08-06T04:02:53;17.90;83.90
47090;DHT22;32840;52.516;13.294;2022-08-06T04:05:40;17.90;83.90
47090;DHT22;32840;52.516;13.294;2022-08-06T04:08:25;18.00;84.00
47090;DHT22;32840;52.516;13.294;2022-08-06T04:11:11;18.00;83.90
47090;DHT22;32840;52.516;13.294;2022-08-06T04:13:58;18.00;84.20
47090;DHT22;32840;52.516;13.294;2022-08-06T04:16:43;18.00;84.10
47090;DHT22;32840;52.516;13.294;2022-08-06T04:19:29;17.90;84.20
47090;DHT22;32840;52.516;13.294;2022-08-06T04:22:15;18.00;84.20
47090;DHT22;32840;52.516;13.294;2022-08-06T04:24:59;18.00;84.30
47090;DHT22;32840;52.516;13.294;2022-08-06T04:27:45;18.00;84.20
47090;DHT22;32840;52.516;13.294;2022-08-06T04:30:31;17.90;84.20
47090;DHT22;32840;52.516;13.294;2022-08-06T04:33:19;18.00;84.30
47090;DHT22;32840;52.516;13.294;2022-08-06T04:36:05;18.00;84.30
47090;DHT22;32840;52.516;13.294;2022-08-06T04:38:51;18.00;84.40
47090;DHT22;32840;52.516;13.294;2022-08-06T04:41:36;18.00;84.40
47090;DHT22;32840;52.516;13.294;2022-08-06T04:44:21;18.00;84.40
47090;DHT22;32840;52.516;13.294;2022-08-06T04:47:06;18.00;84.40
47090;DHT22;32840;52.516;13.294;2022-08-06T04:49:51;18.00;84.40
47090;DHT22;32840;52.516;13.294;2022-08-06T04:52:36;18.10;84.50
47090;DHT22;32840;52.516;13.294;2022-08-06T04:55:22;18.10;84.40
47090;DHT22;32840;52.516;13.294;2022-08-06T04:58:08;18.10;84.60
47090;DHT22;32840;52.516;13.294;2022-08-06T05:00:56;18.00;84.50
47090;DHT22;32840;52.516;13.294;2022-08-06T05:03:41;18.00;84.50
47090;DHT22;32840;52.516;13.294;2022-08-06T05:06:43;18.00;84.50
47090;DHT22;32840;52.516;13.294;2022-08-06T05:09:30;18.00;84.70
47090;DHT22;32840;52.516;13.294;2022-08-06T05:15:26;17.90;84.90
47090;DHT22;32840;52.516;13.294;2022-08-06T05:18:15;17.90;84.90
47090;DHT22;32840;52.516;13.294;2022-08-06T05:21:02;17.90;85.00
47090;DHT22;32840;52.516;13.294;2022-08-06T05:23:52;17.80;84.90
47090;DHT22;32840;52.516;13.294;2022-08-06T05:26:38;17.80;85.10
47090;DHT22;32840;52.516;13.294;2022-08-06T05:29:23;17.80;85.30
47090;DHT22;32840;52.516;13.294;2022-08-06T05:32:08;17.80;85.50
47090;DHT22;32840;52.516;13.294;2022-08-06T05:34:52;17.80;85.80
47090;DHT22;32840;52.516;13.294;2022-08-06T05:37:37;17.80;85.90
47090;DHT22;32840;52.516;13.294;2022-08-06T05:40:22;17.80;86.00
47090;DHT22;32840;52.516;13.294;2022-08-06T05:43:07;17.80;85.90
47090;DHT22;32840;52.516;13.294;2022-08-06T05:45:56;17.80;85.90
47090;DHT22;32840;52.516;13.294;2022-08-06T05:55:08;17.80;86.10
47090;DHT22;32840;52.516;13.294;2022-08-06T05:57:59;17.80;87.10
47090;DHT22;32840;52.516;13.294;2022-08-06T06:00:46;17.80;86.40
47090;DHT22;32840;52.516;13.294;2022-08-06T06:03:31;17.80;86.40
47090;DHT22;32840;52.516;13.294;2022-08-06T06:06:17;17.80;86.60
47090;DHT22;32840;52.516;13.294;2022-08-06T06:09:02;17.80;86.90
47090;DHT22;32840;52.516;13.294;2022-08-06T06:11:47;17.80;86.70
47090;DHT22;32840;52.516;13.294;2022-08-06T06:14:41;17.80;86.70
47090;DHT22;32840;52.516;13.294;2022-08-06T06:17:58;17.90;87.00
47090;DHT22;32840;52.516;13.294;2022-08-06T06:24:41;17.90;86.80
47090;DHT22;32840;52.516;13.294;2022-08-06T06:30:33;18.00;87.10
47090;DHT22;32840;52.516;13.294;2022-08-06T06:36:25;18.00;87.10
47090;DHT22;32840;52.516;13.294;2022-08-06T06:39:38;18.10;86.70
47090;DHT22;32840;52.516;13.294;2022-08-06T06:42:31;18.20;86.90
47090;DHT22;32840;52.516;13.294;2022-08-06T06:45:51;18.20;86.50
47090;DHT22;32840;52.516;13.294;2022-08-06T06:48:50;18.20;86.50
47090;DHT22;32840;52.516;13.294;2022-08-06T06:51:51;18.20;86.00
47090;DHT22;32840;52.516;13.294;2022-08-06T06:54:47;18.20;86.10
47090;DHT22;32840;52.516;13.294;2022-08-06T06:57:36;18.30;86.10
47090;DHT22;32840;52.516;13.294;2022-08-06T07:00:25;18.30;85.90
47090;DHT22;32840;52.516;13.294;2022-08-06T07:03:13;18.30;85.80
47090;DHT22;32840;52.516;13.294;2022-08-06T07:05:59;18.40;85.40
47090;DHT22;32840;52.516;13.294;2022-08-06T07:08:47;18.40;85.40
47090;DHT22;32840;52.516;13.294;2022-08-06T07:11:33;18.40;85.50
47090;DHT22;32840;52.516;13.294;2022-08-06T07:14:22;18.50;86.20
47090;DHT22;32840;52.516;13.294;2022-08-06T07:17:08;18.60;85.60
47090;DHT22;32840;52.516;13.294;2022-08-06T07:19:58;18.50;85.40
47090;DHT22;32840;52.516;13.294;2022-08-06T07:22:46;18.60;85.30
47090;DHT22;32840;52.516;13.294;2022-08-06T07:25:44;18.60;85.10
47090;DHT22;32840;52.516;13.294;2022-08-06T07:28:30;18.60;85.20
47090;DHT22;32840;52.516;13.294;2022-08-06T07:31:15;18.70;85.40
47090;DHT22;32840;52.516;13.294;2022-08-06T07:34:00;18.80;85.50
47090;DHT22;32840;52.516;13.294;2022-08-06T07:36:52;18.80;85.00
47090;DHT22;32840;52.516;13.294;2022-08-06T07:39:38;19.00;84.70
47090;DHT22;32840;52.516;13.294;2022-08-06T07:42:24;19.10;84.10
47090;DHT22;32840;52.516;13.294;2022-08-06T07:45:10;19.10;83.90
47090;DHT22;32840;52.516;13.294;2022-08-06T07:47:56;19.10;83.80
47090;DHT22;32840;52.516;13.294;2022-08-06T07:50:44;19.20;84.20
47090;DHT22;32840;52.516;13.294;2022-08-06T07:53:34;19.30;84.20
47090;DHT22;32840;52.516;13.294;2022-08-06T07:56:20;19.50;83.50
47090;DHT22;32840;52.516;13.294;2022-08-06T07:59:07;19.70;82.80
47090;DHT22;32840;52.516;13.294;2022-08-06T08:01:53;19.90;81.70
47090;DHT22;32840;52.516;13.294;2022-08-06T08:04:38;20.10;80.40
47090;DHT22;32840;52.516;13.294;2022-08-06T08:07:42;20.30;79.00
47090;DHT22;32840;52.516;13.294;2022-08-06T08:10:27;20.50;77.10
47090;DHT22;32840;52.516;13.294;2022-08-06T08:13:11;20.70;76.80
47090;DHT22;32840;52.516;13.294;2022-08-06T08:15:57;21.00;76.60
47090;DHT22;32840;52.516;13.294;2022-08-06T08:18:43;21.60;75.60
47090;DHT22;32840;52.516;13.294;2022-08-06T08:21:29;21.70;73.60
47090;DHT22;32840;52.516;13.294;2022-08-06T08:24:14;21.40;71.80
47090;DHT22;32840;52.516;13.294;2022-08-06T08:27:00;21.20;72.20
47090;DHT22;32840;52.516;13.294;2022-08-06T08:29:47;21.40;72.30
47090;DHT22;32840;52.516;13.294;2022-08-06T08:32:33;21.70;71.20
47090;DHT22;32840;52.516;13.294;2022-08-06T08:35:18;21.80;69.50
47090;DHT22;32840;52.516;13.294;2022-08-06T08:38:03;21.60;67.80
47090;DHT22;32840;52.516;13.294;2022-08-06T08:40:50;21.40;67.50
47090;DHT22;32840;52.516;13.294;2022-08-06T08:43:42;21.50;68.30
47090;DHT22;32840;52.516;13.294;2022-08-06T08:46:32;21.60;67.70
47090;DHT22;32840;52.516;13.294;2022-08-06T08:49:40;21.90;67.60
47090;DHT22;32840;52.516;13.294;2022-08-06T08:52:32;22.00;64.10
47090;DHT22;32840;52.516;13.294;2022-08-06T08:55:24;22.20;64.50
47090;DHT22;32840;52.516;13.294;2022-08-06T08:58:12;22.50;63.90
47090;DHT22;32840;52.516;13.294;2022-08-06T09:00:58;22.90;63.60
47090;DHT22;32840;52.516;13.294;2022-08-06T09:03:43;22.90;62.90
47090;DHT22;32840;52.516;13.294;2022-08-06T09:06:28;22.70;62.50
47090;DHT22;32840;52.516;13.294;2022-08-06T09:09:14;22.60;63.40
47090;DHT22;32840;52.516;13.294;2022-08-06T09:11:59;22.70;62.00
47090;DHT22;32840;52.516;13.294;2022-08-06T09:14:43;22.70;61.50
47090;DHT22;32840;52.516;13.294;2022-08-06T09:17:30;22.70;60.10
47090;DHT22;32840;52.516;13.294;2022-08-06T09:20:15;22.90;59.40
47090;DHT22;32840;52.516;13.294;2022-08-06T09:23:01;23.10;59.30
47090;DHT22;32840;52.516;13.294;2022-08-06T09:25:49;23.30;59.10
47090;DHT22;32840;52.516;13.294;2022-08-06T09:28:41;23.50;57.10
47090;DHT22;32840;52.516;13.294;2022-08-06T09:31:26;23.50;57.50
47090;DHT22;32840;52.516;13.294;2022-08-06T09:34:11;23.70;57.10
47090;DHT22;32840;52.516;13.294;2022-08-06T09:36:56;23.80;57.40
47090;DHT22;32840;52.516;13.294;2022-08-06T09:39:41;23.90;56.20
47090;DHT22;32840;52.516;13.294;2022-08-06T09:42:40;23.60;56.30
47090;DHT22;32840;52.516;13.294;2022-08-06T09:45:25;23.50;56.10
47090;DHT22;32840;52.516;13.294;2022-08-06T09:48:13;23.60;55.50
47090;DHT22;32840;52.516;13.294;2022-08-06T09:50:58;23.60;55.20
47090;DHT22;32840;52.516;13.294;2022-08-06T09:53:52;23.70;55.70
47090;DHT22;32840;52.516;13.294;2022-08-06T09:56:37;23.80;54.80
47090;DHT22;32840;52.516;13.294;2022-08-06T09:59:22;24.00;55.30
47090;DHT22;32840;52.516;13.294;2022-08-06T10:02:12;24.30;54.40
47090;DHT22;32840;52.516;13.294;2022-08-06T10:05:10;24.60;54.00
47090;DHT22;32840;52.516;13.294;2022-08-06T10:08:11;24.60;53.60
47090;DHT22;32840;52.516;13.294;2022-08-06T10:10:57;24.70;52.40
47090;DHT22;32840;52.516;13.294;2022-08-06T10:13:47;24.60;51.90
47090;DHT22;32840;52.516;13.294;2022-08-06T10:16:32;24.50;52.60
47090;DHT22;32840;52.516;13.294;2022-08-06T10:19:17;24.60;52.70
47090;DHT22;32840;52.516;13.294;2022-08-06T10:22:16;24.50;52.90
47090;DHT22;32840;52.516;13.294;2022-08-06T10:25:03;24.30;50.80
47090;DHT22;32840;52.516;13.294;2022-08-06T10:27:51;24.20;51.00
47090;DHT22;32840;52.516;13.294;2022-08-06T10:30:37;23.90;51.30
47090;DHT22;32840;52.516;13.294;2022-08-06T10:33:23;24.00;51.90
47090;DHT22;32840;52.516;13.294;2022-08-06T10:36:13;24.00;52.30
47090;DHT22;32840;52.516;13.294;2022-08-06T10:38:59;24.00;52.60
47090;DHT22;32840;52.516;13.294;2022-08-06T10:41:47;24.10;52.80
47090;DHT22;32840;52.516;13.294;2022-08-06T10:44:33;24.20;53.50
47090;DHT22;32840;52.516;13.294;2022-08-06T10:47:19;24.20;52.40
47090;DHT22;32840;52.516;13.294;2022-08-06T10:50:10;24.20;52.70
47090;DHT22;32840;52.516;13.294;2022-08-06T10:52:56;24.20;52.00
47090;DHT22;32840;52.516;13.294;2022-08-06T10:55:42;24.10;51.80
47090;DHT22;32840;52.516;13.294;2022-08-06T10:58:28;24.00;52.00
47090;DHT22;32840;52.516;13.294;2022-08-06T11:01:28;23.90;51.80
47090;DHT22;32840;52.516;13.294;2022-08-06T11:14:08;24.50;49.80
47090;DHT22;32840;52.516;13.294;2022-08-06T11:16:55;24.60;50.80
47090;DHT22;32840;52.516;13.294;2022-08-06T11:19:48;24.40;51.80
47090;DHT22;32840;52.516;13.294;2022-08-06T11:22:39;24.30;51.50
47090;DHT22;32840;52.516;13.294;2022-08-06T11:31:36;24.00;51.90
47090;DHT22;32840;52.516;13.294;2022-08-06T11:34:21;24.00;50.80
47090;DHT22;32840;52.516;13.294;2022-08-06T11:37:08;24.00;51.10
47090;DHT22;32840;52.516;13.294;2022-08-06T11:40:07;24.00;50.50
47090;DHT22;32840;52.516;13.294;2022-08-06T11:42:52;24.10;50.40
47090;DHT22;32840;52.516;13.294;2022-08-06T11:52:08;24.00;49.60
47090;DHT22;32840;52.516;13.294;2022-08-06T11:55:01;24.20;49.50
47090;DHT22;32840;52.516;13.294;2022-08-06T11:58:18;24.30;49.60
47090;DHT22;32840;52.516;13.294;2022-08-06T12:01:06;24.40;49.80
47090;DHT22;32840;52.516;13.294;2022-08-06T12:03:52;24.40;48.50
47090;DHT22;32840;52.516;13.294;2022-08-06T12:06:37;24.40;48.50
47090;DHT22;32840;52.516;13.294;2022-08-06T12:09:33;24.40;48.10
47090;DHT22;32840;52.516;13.294;2022-08-06T12:18:12;24.30;48.70
47090;DHT22;32840;52.516;13.294;2022-08-06T12:20:56;24.40;48.70
47090;DHT22;32840;52.516;13.294;2022-08-06T12:23:42;24.50;48.10
47090;DHT22;32840;52.516;13.294;2022-08-06T12:26:30;24.40;47.70
47090;DHT22;32840;52.516;13.294;2022-08-06T12:29:16;24.30;47.50
47090;DHT22;32840;52.516;13.294;2022-08-06T12:32:25;24.30;47.90
47090;DHT22;32840;52.516;13.294;2022-08-06T12:35:10;24.20;48.00
47090;DHT22;32840;52.516;13.294;2022-08-06T12:37:57;24.30;47.10
47090;DHT22;32840;52.516;13.294;2022-08-06T12:40:52;24.30;47.20
47090;DHT22;32840;52.516;13.294;2022-08-06T12:43:42;24.30;46.40
47090;DHT22;32840;52.516;13.294;2022-08-06T12:46:27;24.40;46.80
47090;DHT22;32840;52.516;13.294;2022-08-06T12:49:12;24.40;46.00
47090;DHT22;32840;52.516;13.294;2022-08-06T12:52:15;24.40;46.40
47090;DHT22;32840;52.516;13.294;2022-08-06T12:55:16;24.40;46.40
47090;DHT22;32840;52.516;13.294;2022-08-06T12:58:02;24.30;46.20
47090;DHT22;32840;52.516;13.294;2022-08-06T13:00:52;24.10;45.40
47090;DHT22;32840;52.516;13.294;2022-08-06T13:03:39;23.90;45.90
47090;DHT22;32840;52.516;13.294;2022-08-06T13:06:28;23.80;46.40
47090;DHT22;32840;52.516;13.294;2022-08-06T13:09:15;23.70;46.60
47090;DHT22;32840;52.516;13.294;2022-08-06T13:12:11;23.80;47.10
47090;DHT22;32840;52.516;13.294;2022-08-06T13:14:58;23.90;47.00
47090;DHT22;32840;52.516;13.294;2022-08-06T13:20:48;24.00;46.70
47090;DHT22;32840;52.516;13.294;2022-08-06T13:23:43;24.00;47.30
47090;DHT22;32840;52.516;13.294;2022-08-06T13:26:30;23.90;47.00
47090;DHT22;32840;52.516;13.294;2022-08-06T13:29:24;23.80;47.00
47090;DHT22;32840;52.516;13.294;2022-08-06T13:32:10;23.70;47.30
47090;DHT22;32840;52.516;13.294;2022-08-06T13:34:58;23.60;47.30
47090;DHT22;32840;52.516;13.294;2022-08-06T13:37:49;23.50;47.30
47090;DHT22;32840;52.516;13.294;2022-08-06T13:40:46;23.50;47.80
47090;DHT22;32840;52.516;13.294;2022-08-06T13:43:39;23.40;48.00
47090;DHT22;32840;52.516;13.294;2022-08-06T13:46:29;23.50;48.10
47090;DHT22;32840;52.516;13.294;2022-08-06T13:49:14;23.60;47.70
47090;DHT22;32840;52.516;13.294;2022-08-06T13:52:04;23.60;47.30
47090;DHT22;32840;52.516;13.294;2022-08-06T13:54:50;23.70;46.90
47090;DHT22;32840;52.516;13.294;2022-08-06T13:57:34;23.70;46.90
47090;DHT22;32840;52.516;13.294;2022-08-06T14:00:22;23.90;46.40
47090;DHT22;32840;52.516;13.294;2022-08-06T14:03:07;23.90;46.60
47090;DHT22;32840;52.516;13.294;2022-08-06T14:05:52;24.00;46.40
47090;DHT22;32840;52.516;13.294;2022-08-06T14:08:37;24.10;46.50
47090;DHT22;32840;52.516;13.294;2022-08-06T14:11:25;24.10;46.50
47090;DHT22;32840;52.516;13.294;2022-08-06T14:14:10;24.20;46.20
47090;DHT22;32840;52.516;13.294;2022-08-06T14:16:58;24.40;46.30
47090;DHT22;32840;52.516;13.294;2022-08-06T14:19:49;24.40;46.00
47090;DHT22;32840;52.516;13.294;2022-08-06T14:22:34;24.40;46.20
47090;DHT22;32840;52.516;13.294;2022-08-06T14:25:25;24.40;46.10
47090;DHT22;32840;52.516;13.294;2022-08-06T14:28:10;24.40;46.40
47090;DHT22;32840;52.516;13.294;2022-08-06T14:30:55;24.30;46.60
47090;DHT22;32840;52.516;13.294;2022-08-06T14:33:40;24.20;45.40
47090;DHT22;32840;52.516;13.294;2022-08-06T14:36:25;24.00;45.70
47090;DHT22;32840;52.516;13.294;2022-08-06T14:39:13;23.90;45.20
47090;DHT22;32840;52.516;13.294;2022-08-06T14:41:59;24.00;45.80
47090;DHT22;32840;52.516;13.294;2022-08-06T14:45:04;24.00;46.50
47090;DHT22;32840;52.516;13.294;2022-08-06T14:47:51;23.90;46.90
47090;DHT22;32840;52.516;13.294;2022-08-06T14:50:36;23.80;47.40
47090;DHT22;32840;52.516;13.294;2022-08-06T14:53:21;23.70;47.60
47090;DHT22;32840;52.516;13.294;2022-08-06T14:56:06;23.70;47.70
47090;DHT22;32840;52.516;13.294;2022-08-06T14:58:51;23.80;47.20
47090;DHT22;32840;52.516;13.294;2022-08-06T15:01:36;23.80;46.90
47090;DHT22;32840;52.516;13.294;2022-08-06T15:04:21;23.80;46.60
47090;DHT22;32840;52.516;13.294;2022-08-06T15:07:09;23.80;47.00
47090;DHT22;32840;52.516;13.294;2022-08-06T15:09:55;23.80;47.60
47090;DHT22;32840;52.516;13.294;2022-08-06T15:12:41;23.80;46.70
47090;DHT22;32840;52.516;13.294;2022-08-06T15:15:26;23.70;46.90
47090;DHT22;32840;52.516;13.294;2022-08-06T15:18:11;23.70;47.20
47090;DHT22;32840;52.516;13.294;2022-08-06T15:20:57;23.70;47.50
47090;DHT22;32840;52.516;13.294;2022-08-06T15:23:42;23.60;47.50
47090;DHT22;32840;52.516;13.294;2022-08-06T15:26:32;23.70;47.20
47090;DHT22;32840;52.516;13.294;2022-08-06T15:29:17;23.70;47.00
47090;DHT22;32840;52.516;13.294;2022-08-06T15:32:02;23.70;47.30
47090;DHT22;32840;52.516;13.294;2022-08-06T15:34:47;23.70;47.80
47090;DHT22;32840;52.516;13.294;2022-08-06T15:37:34;23.80;47.00
47090;DHT22;32840;52.516;13.294;2022-08-06T15:40:19;23.80;47.20
47090;DHT22;32840;52.516;13.294;2022-08-06T15:43:05;23.80;46.40
47090;DHT22;32840;52.516;13.294;2022-08-06T15:45:51;23.80;47.00
47090;DHT22;32840;52.516;13.294;2022-08-06T15:48:36;23.80;46.70
47090;DHT22;32840;52.516;13.294;2022-08-06T15:51:23;24.00;46.00
47090;DHT22;32840;52.516;13.294;2022-08-06T15:54:09;24.10;45.30
47090;DHT22;32840;52.516;13.294;2022-08-06T15:56:57;24.10;45.60
47090;DHT22;32840;52.516;13.294;2022-08-06T15:59:44;24.00;45.80
47090;DHT22;32840;52.516;13.294;2022-08-06T16:02:29;23.90;46.10
47090;DHT22;32840;52.516;13.294;2022-08-06T16:05:14;23.80;46.10
47090;DHT22;32840;52.516;13.294;2022-08-06T16:08:06;23.70;46.20
47090;DHT22;32840;52.516;13.294;2022-08-06T16:11:01;23.70;46.30
47090;DHT22;32840;52.516;13.294;2022-08-06T16:13:45;23.70;46.00
47090;DHT22;32840;52.516;13.294;2022-08-06T16:16:31;23.70;46.20
47090;DHT22;32840;52.516;13.294;2022-08-06T16:19:15;23.70;46.30
47090;DHT22;32840;52.516;13.294;2022-08-06T16:22:00;23.70;46.20
47090;DHT22;32840;52.516;13.294;2022-08-06T16:24:47;23.70;46.10
47090;DHT22;32840;52.516;13.294;2022-08-06T16:27:32;23.60;46.20
47090;DHT22;32840;52.516;13.294;2022-08-06T16:30:16;23.50;45.60
47090;DHT22;32840;52.516;13.294;2022-08-06T16:33:02;23.40;45.60
47090;DHT22;32840;52.516;13.294;2022-08-06T16:35:47;23.40;45.70
47090;DHT22;32840;52.516;13.294;2022-08-06T16:38:34;23.40;46.00
47090;DHT22;32840;52.516;13.294;2022-08-06T16:41:25;23.40;46.50
47090;DHT22;32840;52.516;13.294;2022-08-06T16:44:10;23.40;46.70
47090;DHT22;32840;52.516;13.294;2022-08-06T16:46:55;23.30;47.00
47090;DHT22;32840;52.516;13.294;2022-08-06T16:50:01;23.30;47.10
47090;DHT22;32840;52.516;13.294;2022-08-06T16:52:51;23.30;47.50
47090;DHT22;32840;52.516;13.294;2022-08-06T16:55:45;23.20;47.40
47090;DHT22;32840;52.516;13.294;2022-08-06T16:58:39;23.20;47.70
47090;DHT22;32840;52.516;13.294;2022-08-06T17:01:52;23.20;47.80
47090;DHT22;32840;52.516;13.294;2022-08-06T17:05:17;23.20;47.50
47090;DHT22;32840;52.516;13.294;2022-08-06T17:08:06;23.20;47.60
47090;DHT22;32840;52.516;13.294;2022-08-06T17:11:01;23.20;47.30
47090;DHT22;32840;52.516;13.294;2022-08-06T17:13:47;23.10;47.50
47090;DHT22;32840;52.516;13.294;2022-08-06T17:16:33;23.10;47.70
47090;DHT22;32840;52.516;13.294;2022-08-06T17:19:18;23.10;47.90
47090;DHT22;32840;52.516;13.294;2022-08-06T17:22:04;23.00;47.40
47090;DHT22;32840;52.516;13.294;2022-08-06T17:24:49;23.00;47.40
47090;DHT22;32840;52.516;13.294;2022-08-06T17:27:36;23.00;47.40
47090;DHT22;32840;52.516;13.294;2022-08-06T17:30:22;23.00;47.70
47090;DHT22;32840;52.516;13.294;2022-08-06T17:33:08;22.90;47.30
47090;DHT22;32840;52.516;13.294;2022-08-06T17:35:53;22.90;47.10
47090;DHT22;32840;52.516;13.294;2022-08-06T17:38:39;22.80;47.20
47090;DHT22;32840;52.516;13.294;2022-08-06T17:41:24;22.80;47.50
47090;DHT22;32840;52.516;13.294;2022-08-06T17:44:12;22.80;47.50
47090;DHT22;32840;52.516;13.294;2022-08-06T17:47:03;22.80;47.60
47090;DHT22;32840;52.516;13.294;2022-08-06T17:49:48;22.80;47.80
47090;DHT22;32840;52.516;13.294;2022-08-06T17:52:33;22.70;47.80
47090;DHT22;32840;52.516;13.294;2022-08-06T17:55:19;22.70;48.10
47090;DHT22;32840;52.516;13.294;2022-08-06T17:58:05;22.70;48.20
47090;DHT22;32840;52.516;13.294;2022-08-06T18:00:51;22.70;48.50
47090;DHT22;32840;52.516;13.294;2022-08-06T18:03:38;22.70;48.80
47090;DHT22;32840;52.516;13.294;2022-08-06T18:06:22;22.60;48.90
47090;DHT22;32840;52.516;13.294;2022-08-06T18:09:09;22.60;49.10
47090;DHT22;32840;52.516;13.294;2022-08-06T18:11:55;22.60;49.30
47090;DHT22;32840;52.516;13.294;2022-08-06T18:14:40;22.60;49.40
47090;DHT22;32840;52.516;13.294;2022-08-06T18:17:25;22.50;49.50
47090;DHT22;32840;52.516;13.294;2022-08-06T18:20:11;22.50;49.70
47090;DHT22;32840;52.516;13.294;2022-08-06T18:23:00;22.50;50.00